Aberdeen, Canada
Current Conditions -  °F | °C
As of 8:00 PM on Wednesday 26 Nov 2014 (Local Time) from CYXE Reporting Station
Overcast Overcast  
Wind Chill: -9°   Ceiling: 3700
Heat Index:   Visibility: 15mi
Dew Point: -2°   Wind: 9mph
Humidity: 72%   Direction: 170°S
Pressure: 30.33"   Gusts: NA
Location:  52.32°N, 106.28°W
Report Text: CYXE 270200Z 17008KT 15SM OVC037 M15/M19 A3033 RMK SC8 SLP320
Loading
Personal Weather Stations






























Interactive Weather Map New forecast layout! Learn more

10-Day Weather Forecast

Advertisements
Track Severe Weather on mobile